Time;durP1;ratioP1;P1;durP2;ratioP2;P2;SDS_P1;SDS_P2;PMS_P1;PMS_P2;Temp;Humidity;BMP_temperature;BMP_pressure;BME280_temperature;BME280_humidity;BME280_pressure;Samples;Min_cycle;Max_cycle;Signal;HPM_P1;HPM_P2
2022/07/17 00:01:32;768478.00;2.56;1326.20;21055.00;0.07;37.10;;;;;23.30;1.00;;;;;;2272993;61;1287;-87
2022/07/17 00:03:59;782045.00;2.61;1349.83;87034.00;0.29;151.19;;;;;23.40;1.00;;;;;;2272626;61;1911;-86
2022/07/17 00:06:26;714008.00;2.38;1231.54;48380.00;0.16;84.38;;;;;23.40;1.00;;;;;;2273018;61;1120;-87
2022/07/17 00:08:53;686027.00;2.29;1183.02;32625.00;0.11;57.13;;;;;23.30;1.00;;;;;;2273085;61;1038;-87
2022/07/17 00:11:20;895804.00;2.99;1548.75;55216.00;0.18;96.21;;;;;23.30;1.00;;;;;;2272838;61;1403;-85
2022/07/17 00:13:46;725265.00;2.42;1251.08;56256.00;0.19;98.00;;;;;22.50;1.00;;;;;;2272875;61;1169;-88
2022/07/17 00:16:13;552002.00;1.84;951.41;46480.00;0.15;81.10;;;;;22.20;1.00;;;;;;2272936;61;1141;-86
2022/07/17 00:18:42;718442.00;2.39;1239.23;63720.00;0.21;110.91;;;;;22.30;1.00;;;;;;2272989;61;1085;-86
2022/07/17 00:21:08;940353.00;3.13;1627.11;199708.00;0.67;345.42;;;;;22.90;1.00;;;;;;2272924;61;1285;-86
2022/07/17 00:23:35;943082.00;3.14;1631.92;74150.00;0.25;128.93;;;;;22.70;1.00;;;;;;2272946;61;1988;-87
2022/07/17 00:26:02;846145.00;2.82;1461.72;134808.00;0.45;233.62;;;;;22.70;1.00;;;;;;2273019;61;1029;-86
2022/07/17 00:28:29;646276.00;2.15;1114.19;47555.00;0.16;82.96;;;;;22.90;1.00;;;;;;2272879;61;993;-86
2022/07/17 00:30:56;744061.00;2.48;1283.73;58319.00;0.19;101.57;;;;;22.70;1.00;;;;;;2272841;61;1738;-86
2022/07/17 00:33:23;784922.00;2.62;1354.84;53470.00;0.18;93.19;;;;;22.50;1.00;;;;;;2272867;61;1023;-87
2022/07/17 00:35:51;1029058.00;3.43;1784.01;253820.00;0.85;438.52;;;;;22.50;1.00;;;;;;2272929;61;1102;-86
2022/07/17 00:38:18;925582.00;3.09;1601.10;60077.00;0.20;104.61;;;;;22.60;1.00;;;;;;2272974;61;1022;-85
2022/07/17 00:40:45;892058.00;2.97;1542.18;69476.00;0.23;120.85;;;;;22.80;1.00;;;;;;2272897;61;1397;-87
2022/07/17 00:43:12;606319.00;2.02;1045.13;59864.00;0.20;104.24;;;;;23.00;1.00;;;;;;2272895;61;1093;-87
2022/07/17 00:45:39;843381.00;2.81;1456.89;76050.00;0.25;132.21;;;;;23.00;1.00;;;;;;2272789;61;1939;-88
2022/07/17 00:48:10;967436.00;3.22;1674.88;107985.00;0.36;187.35;;;;;22.70;1.00;;;;;;2272894;61;1064;-87
2022/07/17 00:50:40;1014590.00;3.38;1758.33;118848.00;0.40;206.10;;;;;22.30;1.00;;;;;;2272670;61;1467;-85
2022/07/17 00:53:10;1263708.00;4.21;2205.84;90665.00;0.30;157.46;;;;;22.30;1.00;;;;;;2272773;61;1762;-86
2022/07/17 00:55:37;980476.00;3.27;1697.92;84910.00;0.28;147.52;;;;;22.20;1.00;;;;;;2272823;61;1098;-87
2022/07/17 00:58:06;1059491.00;3.53;1838.13;92885.00;0.31;161.29;;;;;21.90;1.00;;;;;;2272856;61;1097;-85
2022/07/17 01:00:33;1013967.00;3.38;1757.22;114429.00;0.38;198.47;;;;;22.20;1.00;;;;;;2272843;61;1399;-86
2022/07/17 01:03:00;1145252.00;3.82;1991.54;158793.00;0.53;274.96;;;;;22.30;1.00;;;;;;2272834;61;914;-88
2022/07/17 01:05:27;1042260.00;3.47;1807.46;106159.00;0.35;184.20;;;;;22.20;1.00;;;;;;2272801;61;1926;-88
2022/07/17 01:07:54;807692.00;2.69;1394.54;61598.00;0.21;107.24;;;;;22.60;1.00;;;;;;2272820;61;1179;-87
2022/07/17 01:10:22;907326.00;3.02;1568.99;145677.00;0.49;252.36;;;;;22.70;1.00;;;;;;2272842;61;1077;-87
2022/07/17 01:12:49;835499.00;2.78;1443.11;43299.00;0.14;75.60;;;;;22.40;1.00;;;;;;2272742;61;1293;-87
2022/07/17 01:15:17;1220069.00;4.07;2126.55;57447.00;0.19;100.06;;;;;22.30;1.00;;;;;;2272764;61;1516;-87
2022/07/17 01:17:44;1001444.00;3.34;1735.03;133500.00;0.44;231.36;;;;;22.10;1.00;;;;;;2272815;61;1064;-86
2022/07/17 01:20:12;1177485.00;3.92;2049.57;240515.00;0.80;415.64;;;;;22.20;1.00;;;;;;2272721;61;1077;-87
2022/07/17 01:22:47;355345.00;1.18;613.05;77692.00;0.26;135.05;;;;;22.10;1.00;;;;;;2272672;61;1356;-87
2022/07/17 01:25:14;495904.00;1.65;854.77;109234.00;0.36;189.51;;;;;22.00;1.00;;;;;;2272670;61;2140;-88
2022/07/17 01:27:42;182756.00;0.61;316.24;75610.00;0.25;131.45;;;;;22.30;1.00;;;;;;2272688;61;1021;-87
2022/07/17 01:30:11;414087.00;1.38;714.02;183711.00;0.61;317.88;;;;;22.40;1.00;;;;;;2272730;61;1087;-86
2022/07/17 01:32:40;302247.00;1.01;521.78;77189.00;0.26;134.18;;;;;22.10;1.00;;;;;;2272630;61;1397;-88
2022/07/17 01:35:09;351451.00;1.17;606.36;110990.00;0.37;192.54;;;;;22.20;1.00;;;;;;2272697;61;1283;-86
2022/07/17 01:37:37;403122.00;1.34;695.17;61521.00;0.21;107.11;;;;;22.30;1.00;;;;;;2272591;61;1036;-86
2022/07/17 01:40:06;317098.00;1.06;547.31;72039.00;0.24;125.28;;;;;22.20;1.00;;;;;;2272667;61;1067;-86
2022/07/17 01:42:33;326600.00;1.09;563.64;86119.00;0.29;149.61;;;;;22.10;1.00;;;;;;2272632;61;1396;-87
2022/07/17 01:45:01;162346.00;0.54;281.08;67753.00;0.23;117.88;;;;;22.10;1.00;;;;;;2272625;61;1985;-86
2022/07/17 01:47:27;227437.00;0.76;393.14;69392.00;0.23;120.71;;;;;22.20;1.00;;;;;;2272620;61;1018;-87
2022/07/17 01:53:34;299401.00;1.00;516.89;0.00;0.00;0.62;;;;;22.30;1.00;;;;;;2272750;61;656;-87
2022/07/17 01:56:03;872273.00;2.91;1507.47;168513.00;0.56;291.71;;;;;22.10;1.00;;;;;;2272650;61;1052;-87
2022/07/17 01:58:30;958754.00;3.20;1659.55;83122.00;0.28;144.43;;;;;22.10;1.00;;;;;;2272689;61;990;-87
2022/07/17 02:00:57;624693.00;2.08;1076.88;59775.00;0.20;104.09;;;;;21.80;1.00;;;;;;2272443;61;1396;-87
2022/07/17 02:03:24;942202.00;3.14;1630.36;75533.00;0.25;131.32;;;;;21.60;1.00;;;;;;2272595;61;1020;-88
2022/07/17 02:05:51;711327.00;2.37;1226.89;61467.00;0.20;107.01;;;;;21.50;1.00;;;;;;2272592;61;2023;-87
2022/07/17 02:08:18;1075632.00;3.59;1866.90;205478.00;0.68;355.35;;;;;21.50;1.00;;;;;;2272630;61;976;-86
2022/07/17 02:10:44;737561.00;2.46;1272.44;9097.00;0.03;16.38;;;;;21.30;1.00;;;;;;2272580;61;1273;-87
2022/07/17 02:13:13;606801.00;2.02;1045.96;8461.00;0.03;15.28;;;;;21.10;1.00;;;;;;2272512;61;1178;-87
2022/07/17 02:15:40;924971.00;3.08;1600.02;45549.00;0.15;79.49;;;;;21.00;1.00;;;;;;2272614;61;1042;-87
2022/07/17 02:18:06;640894.00;2.14;1104.89;23207.00;0.08;40.82;;;;;21.60;1.00;;;;;;2272586;61;1707;-86
2022/07/17 02:20:33;1050071.00;3.50;1821.36;108333.00;0.36;187.95;;;;;21.30;1.00;;;;;;2272599;61;1380;-86
2022/07/17 02:23:00;792115.00;2.64;1367.38;38367.00;0.13;67.06;;;;;21.00;1.00;;;;;;2272621;61;1110;-88
2022/07/17 02:25:27;1247840.00;4.16;2176.96;231722.00;0.77;400.51;;;;;21.30;1.00;;;;;;2272547;61;1910;-88
2022/07/17 02:27:54;784968.00;2.62;1354.92;134735.00;0.45;233.49;;;;;21.40;1.00;;;;;;2272573;61;1107;-86
2022/07/17 02:30:22;881242.00;2.94;1523.20;143474.00;0.48;248.56;;;;;21.00;1.00;;;;;;2272643;61;1095;-87
2022/07/17 02:32:49;1010114.00;3.37;1750.39;164416.00;0.55;284.65;;;;;21.20;1.00;;;;;;2272607;61;1290;-86
2022/07/17 02:35:16;923363.00;3.08;1597.19;120212.00;0.40;208.45;;;;;21.10;1.00;;;;;;2272554;61;1106;-86
2022/07/17 02:37:45;922019.00;3.07;1594.83;152458.00;0.51;264.04;;;;;21.60;1.00;;;;;;2272581;61;1227;-87
2022/07/17 02:40:13;1006490.00;3.35;1743.97;125043.00;0.42;216.78;;;;;21.60;1.00;;;;;;2272536;61;1201;-86
2022/07/17 02:42:40;950490.00;3.17;1644.98;134818.00;0.45;233.64;;;;;21.70;1.00;;;;;;2272505;61;1388;-86
2022/07/17 02:45:08;1012106.00;3.37;1753.92;104049.00;0.35;180.56;;;;;21.60;1.00;;;;;;2272481;61;1918;-86
2022/07/17 02:47:37;1165906.00;3.89;2028.70;197148.00;0.66;341.01;;;;;21.80;1.00;;;;;;2272559;61;1146;-86
2022/07/17 02:50:07;986541.00;3.29;1708.65;64667.00;0.22;112.54;;;;;21.90;1.00;;;;;;2272504;61;1101;-87
2022/07/17 02:52:34;876500.00;2.92;1514.88;67229.00;0.22;116.97;;;;;21.70;1.00;;;;;;2272494;61;1337;-87
2022/07/17 02:55:01;937489.00;3.12;1622.06;105537.00;0.35;183.13;;;;;21.80;1.00;;;;;;2272483;61;1055;-88
2022/07/17 02:57:28;1099832.00;3.67;1910.12;140331.00;0.47;243.14;;;;;21.70;1.00;;;;;;2272472;61;1084;-87
2022/07/17 02:59:54;1087891.00;3.63;1888.78;97334.00;0.32;168.97;;;;;21.60;1.00;;;;;;2272558;61;1120;-87
2022/07/17 03:02:21;1438554.00;4.80;2528.02;167009.00;0.56;289.11;;;;;21.50;1.00;;;;;;2272454;61;1366;-87
2022/07/17 03:04:50;910548.00;3.04;1574.65;178673.00;0.60;309.20;;;;;21.30;1.00;;;;;;2272445;61;1915;-88
2022/07/17 03:07:16;1090794.00;3.64;1893.97;91859.00;0.31;159.52;;;;;21.50;1.00;;;;;;2272524;61;1059;-86
2022/07/17 03:09:43;332889.00;1.11;574.45;82056.00;0.27;142.59;;;;;21.90;1.00;;;;;;2272402;61;1150;-88
2022/07/17 03:12:10;263993.00;0.88;456.01;74038.00;0.25;128.74;;;;;21.80;1.00;;;;;;2272350;61;1649;-85
2022/07/17 03:14:37;369237.00;1.23;636.93;80748.00;0.27;140.33;;;;;21.50;1.00;;;;;;2273092;61;911;-87
2022/07/17 03:17:04;344953.00;1.15;595.19;76013.00;0.25;132.15;;;;;21.70;1.00;;;;;;2273148;61;1098;-87
2022/07/17 03:19:31;187243.00;0.62;323.96;75125.00;0.25;130.62;;;;;21.30;1.00;;;;;;2273088;61;1022;-86
2022/07/17 03:21:59;165399.00;0.55;286.34;75158.00;0.25;130.67;;;;;21.30;1.00;;;;;;2273053;61;1364;-87
2022/07/17 03:24:26;205659.00;0.69;355.66;71953.00;0.24;125.14;;;;;21.30;1.00;;;;;;2273093;61;1923;-88
2022/07/17 03:26:53;178541.00;0.60;308.98;73280.00;0.24;127.43;;;;;21.30;1.00;;;;;;2273153;61;1300;-87
2022/07/17 03:29:20;202181.00;0.67;349.68;73584.00;0.25;127.95;;;;;21.30;1.00;;;;;;2273078;61;1046;-87
2022/07/17 03:31:48;368263.00;1.23;635.25;70273.00;0.23;122.23;;;;;21.30;1.00;;;;;;2273119;61;1283;-87
2022/07/17 03:34:15;212896.00;0.71;368.12;71287.00;0.24;123.98;;;;;21.30;1.00;;;;;;2273157;61;1096;-85
2022/07/17 03:36:42;212956.00;0.71;368.22;71618.00;0.24;124.56;;;;;21.40;1.00;;;;;;2273160;61;1122;-87
2022/07/17 03:39:10;166399.00;0.55;288.06;71552.00;0.24;124.44;;;;;21.60;1.00;;;;;;2273148;61;1056;-87
2022/07/17 03:41:37;406522.00;1.36;701.02;79717.00;0.27;138.55;;;;;21.70;1.00;;;;;;2273042;61;1646;-86
2022/07/17 03:44:05;207260.00;0.69;358.42;72469.00;0.24;126.03;;;;;21.50;1.00;;;;;;2273091;61;1090;-87
2022/07/17 03:46:32;211847.00;0.71;366.31;77492.00;0.26;134.70;;;;;20.60;1.00;;;;;;2273018;61;2013;-88
2022/07/17 03:48:59;254302.00;0.85;439.35;82082.00;0.27;142.63;;;;;20.30;1.00;;;;;;2273048;61;1059;-87
2022/07/17 03:51:26;441913.00;1.47;761.87;69073.00;0.23;120.16;;;;;20.40;1.00;;;;;;2273033;61;1456;-85
2022/07/17 03:53:53;12940.00;0.04;23.04;0.00;0.00;0.62;;;;;20.70;1.00;;;;;;2273051;61;1085;-86
2022/07/17 03:56:22;116963768.00;389.88;64815408.00;116912320.00;389.71;64729852.00;;;;;20.80;1.00;;;;;;2273034;61;1020;-86
2022/07/17 03:58:49;168689.00;0.56;292.01;75077.00;0.25;130.53;;;;;20.90;1.00;;;;;;2273071;61;1123;-86
2022/07/17 04:01:16;48587.00;0.16;84.74;0.00;0.00;0.62;;;;;20.70;1.00;;;;;;2273048;61;1398;-88
2022/07/17 04:03:43;121043.00;0.40;209.88;0.00;0.00;0.62;;;;;20.50;1.00;;;;;;2272947;61;1088;-87
2022/07/17 04:06:10;188507.00;0.63;326.14;0.00;0.00;0.62;;;;;20.20;1.00;;;;;;2273003;61;1916;-86
2022/07/17 04:08:37;186494.00;0.62;322.67;0.00;0.00;0.62;;;;;20.20;1.00;;;;;;2272985;61;1012;-86
2022/07/17 04:11:04;0.00;0.00;0.62;0.00;0.00;0.62;;;;;20.00;1.00;;;;;;2272960;61;1415;-87
2022/07/17 04:13:32;101163.00;0.34;175.58;0.00;0.00;0.62;;;;;20.10;1.00;;;;;;2272976;61;1039;-88
2022/07/17 04:16:00;126795.00;0.42;219.80;0.00;0.00;0.62;;;;;20.30;1.00;;;;;;2272991;61;1003;-88
2022/07/17 04:18:30;0.00;0.00;0.62;0.00;0.00;0.62;;;;;20.60;1.00;;;;;;2278942;39;3613;-87
2022/07/17 04:20:58;28527.00;0.10;50.03;0.00;0.00;0.62;;;;;20.80;1.00;;;;;;2268826;61;1325;-87
2022/07/17 04:23:26;49510.00;0.17;86.34;0.00;0.00;0.62;;;;;20.80;1.00;;;;;;2268872;61;1040;-86
2022/07/17 04:25:53;22950.00;0.08;40.38;0.00;0.00;0.62;;;;;21.10;1.00;;;;;;2268682;61;1959;-88
2022/07/17 04:28:21;48206.00;0.16;84.08;0.00;0.00;0.62;;;;;21.10;1.00;;;;;;2268889;61;1155;-87
2022/07/17 04:30:49;102733.00;0.34;178.29;0.00;0.00;0.62;;;;;21.20;1.00;;;;;;2268918;61;1383;-86
2022/07/17 04:33:16;91598.00;0.31;159.07;20352.00;0.07;35.88;;;;;21.20;1.00;;;;;;2268871;61;1005;-86
2022/07/17 04:35:43;144364.00;0.48;250.09;47127.00;0.16;82.22;;;;;21.30;1.00;;;;;;2268928;61;915;-87
2022/07/17 04:38:11;0.00;0.00;0.62;0.00;0.00;0.62;;;;;21.40;1.00;;;;;;2268866;61;1003;-86
2022/07/17 04:40:39;84035.00;0.28;146.01;0.00;0.00;0.62;;;;;21.40;1.00;;;;;;2268766;61;1585;-86
2022/07/17 04:43:07;69529.00;0.23;120.95;0.00;0.00;0.62;;;;;21.60;1.00;;;;;;2268803;61;1707;-87
2022/07/17 04:45:34;22582.00;0.08;39.74;0.00;0.00;0.62;;;;;21.80;1.00;;;;;;2268681;61;1932;-86
2022/07/17 04:48:03;110898.00;0.37;192.38;0.00;0.00;0.62;;;;;21.80;1.00;;;;;;2268789;61;1614;-87
2022/07/17 04:50:30;0.00;0.00;0.62;0.00;0.00;0.62;;;;;21.90;1.00;;;;;;2268809;61;1133;-87
2022/07/17 04:52:57;110000.00;0.37;190.83;0.00;0.00;0.62;;;;;21.80;1.00;;;;;;2268856;61;1708;-87
2022/07/17 04:55:24;40487.00;0.13;70.73;0.00;0.00;0.62;;;;;22.00;1.00;;;;;;2268781;61;1110;-86
2022/07/17 04:57:51;120171.00;0.40;208.38;0.00;0.00;0.62;;;;;21.90;1.00;;;;;;2268827;61;999;-86
2022/07/17 05:00:18;0.00;0.00;0.62;0.00;0.00;0.62;;;;;21.70;1.00;;;;;;2268770;61;1084;-87
2022/07/17 05:02:45;0.00;0.00;0.62;0.00;0.00;0.62;;;;;21.70;1.00;;;;;;2268828;61;1422;-86
2022/07/17 05:05:13;40180.00;0.13;70.20;0.00;0.00;0.62;;;;;21.70;1.00;;;;;;2268626;61;1912;-87
2022/07/17 05:07:41;196685.00;0.66;340.22;0.00;0.00;0.62;;;;;21.80;1.00;;;;;;2268709;61;1127;-86
2022/07/17 05:10:09;7198.00;0.02;13.09;0.00;0.00;0.62;;;;;21.80;1.00;;;;;;2268726;61;1079;-86
2022/07/17 05:12:37;336024.00;1.12;579.84;65962.00;0.22;114.78;;;;;21.80;1.00;;;;;;2268737;61;1460;-86
2022/07/17 05:15:04;28870.00;0.10;50.63;0.00;0.00;0.62;;;;;21.90;1.00;;;;;;2268734;61;1009;-88
2022/07/17 05:17:31;141412.00;0.47;245.00;0.00;0.00;0.62;;;;;22.00;1.00;;;;;;2268609;61;1557;-87
2022/07/17 05:19:58;84756.00;0.28;147.25;0.00;0.00;0.62;;;;;22.00;1.00;;;;;;2268717;61;1435;-88
2022/07/17 05:22:26;187268.00;0.62;324.00;0.00;0.00;0.62;;;;;22.10;1.00;;;;;;2268695;61;1282;-86
2022/07/17 05:24:53;12880.00;0.04;22.94;0.00;0.00;0.62;;;;;22.10;1.00;;;;;;2268660;61;1916;-86
2022/07/17 05:27:21;45094.00;0.15;78.70;0.00;0.00;0.62;;;;;22.20;1.00;;;;;;2268729;61;974;-89
2022/07/17 05:29:48;0.00;0.00;0.62;0.00;0.00;0.62;;;;;22.00;1.00;;;;;;2268709;61;1045;-86
2022/07/17 05:32:15;216289.00;0.72;373.96;51368.00;0.17;89.55;;;;;22.10;1.00;;;;;;2268631;61;1270;-86
2022/07/17 05:34:42;112753.00;0.38;195.58;12852.00;0.04;22.89;;;;;22.00;1.00;;;;;;2268703;61;1128;-86
2022/07/17 05:37:09;140389.00;0.47;243.24;0.00;0.00;0.62;;;;;21.50;1.00;;;;;;2268545;61;1356;-87
2022/07/17 05:39:38;0.00;0.00;0.62;0.00;0.00;0.62;;;;;21.70;1.00;;;;;;2268434;61;1456;-87
2022/07/17 05:42:05;0.00;0.00;0.62;0.00;0.00;0.62;;;;;22.20;1.00;;;;;;2268631;61;1262;-86
2022/07/17 05:44:32;182366.00;0.61;315.56;0.00;0.00;0.62;;;;;22.40;1.00;;;;;;2268640;61;1064;-88
2022/07/17 05:46:59;26470.00;0.09;46.47;0.00;0.00;0.62;;;;;22.70;1.00;;;;;;2268609;61;2010;-86
2022/07/17 05:49:26;142711.00;0.48;247.24;0.00;0.00;0.62;;;;;24.30;1.00;;;;;;2268645;61;1158;-87
2022/07/17 05:51:53;131509.00;0.44;227.93;0.00;0.00;0.62;;;;;25.90;1.00;;;;;;2268555;61;1437;-87
2022/07/17 05:54:20;222905.00;0.74;385.34;0.00;0.00;0.62;;;;;27.60;1.00;;;;;;2268575;61;1049;-88
2022/07/17 05:56:48;165700.00;0.55;286.86;0.00;0.00;0.62;;;;;28.50;1.00;;;;;;2268544;61;1058;-87
2022/07/17 05:59:15;196644.00;0.66;340.15;0.00;0.00;0.62;;;;;29.70;1.00;;;;;;2268545;61;1442;-88
2022/07/17 06:01:42;203679.00;0.68;352.26;0.00;0.00;0.62;;;;;30.70;1.00;;;;;;2268485;61;1351;-88
2022/07/17 06:04:14;166142.00;0.55;287.62;0.00;0.00;0.62;;;;;31.40;1.00;;;;;;2268459;61;1022;-87
2022/07/17 06:06:42;669595.00;2.23;1154.55;0.00;0.00;0.62;;;;;31.50;1.00;;;;;;2278462;56;3759;-87
2022/07/17 06:09:09;359588.00;1.20;620.34;0.00;0.00;0.62;;;;;31.90;1.00;;;;;;2272610;61;1782;-87
2022/07/17 06:11:36;206641.00;0.69;357.35;0.00;0.00;0.62;;;;;32.60;1.00;;;;;;2272979;61;1587;-90
2022/07/17 06:14:04;81909.00;0.27;142.33;0.00;0.00;0.62;;;;;33.30;1.00;;;;;;2273183;61;1094;-88
2022/07/17 06:16:32;156719.00;0.52;271.39;0.00;0.00;0.62;;;;;33.70;1.00;;;;;;2272628;61;1168;-87
2022/07/17 06:18:59;24690.00;0.08;43.39;0.00;0.00;0.62;;;;;34.40;1.00;;;;;;2272467;61;1244;-87
2022/07/17 06:21:26;185313.00;0.62;320.64;876.00;0.00;2.14;;;;;34.70;1.00;;;;;;2272504;61;1448;-88
2022/07/17 06:23:53;186455.00;0.62;322.60;0.00;0.00;0.62;;;;;35.50;1.00;;;;;;2272499;61;1098;-86
2022/07/17 06:26:20;250684.00;0.84;433.13;26473.00;0.09;46.48;;;;;35.70;1.00;;;;;;2272555;61;1908;-85
2022/07/17 06:28:47;45996.00;0.15;80.26;0.00;0.00;0.62;;;;;35.90;1.00;;;;;;2283209;55;3730;-87
2022/07/17 06:31:15;222276.00;0.74;384.26;0.00;0.00;0.62;;;;;35.90;1.00;;;;;;2296847;55;3777;-86
2022/07/17 06:33:42;274260.00;0.91;473.67;28923.00;0.10;50.72;;;;;35.30;1.00;;;;;;2272574;61;1135;-86
2022/07/17 06:36:09;142666.00;0.48;247.17;0.00;0.00;0.62;;;;;35.10;1.00;;;;;;2272335;61;1060;-86
2022/07/17 06:38:36;83228.00;0.28;144.61;0.00;0.00;0.62;;;;;35.70;1.00;;;;;;2272321;61;1176;-86
2022/07/17 06:41:03;23437.00;0.08;41.22;0.00;0.00;0.62;;;;;35.20;1.00;;;;;;2272351;61;1649;-87
2022/07/17 06:43:30;159097.00;0.53;275.48;0.00;0.00;0.62;;;;;35.60;1.00;;;;;;2272229;61;1488;-87
2022/07/17 06:45:58;133045.00;0.44;230.58;0.00;0.00;0.62;;;;;34.80;1.00;;;;;;2272394;61;1984;-87
2022/07/17 06:48:26;255660.00;0.85;441.69;52500.00;0.17;91.51;;;;;35.20;1.00;;;;;;2272305;61;1628;-85
2022/07/17 06:50:53;262672.00;0.88;453.74;0.00;0.00;0.62;;;;;36.00;1.00;;;;;;2272352;61;1293;-86
2022/07/17 06:53:20;216408.00;0.72;374.16;0.00;0.00;0.62;;;;;36.50;1.00;;;;;;2272428;61;1106;-86
2022/07/17 06:55:48;79060.00;0.26;137.41;0.00;0.00;0.62;;;;;36.70;1.00;;;;;;2272563;61;1175;-87
2022/07/17 06:58:17;202967.00;0.68;351.03;0.00;0.00;0.62;;;;;37.80;1.00;;;;;;2272406;61;1594;-87
2022/07/17 07:00:44;155331.00;0.52;268.99;0.00;0.00;0.62;;;;;37.20;1.00;;;;;;2293087;39;3631;-87
2022/07/17 07:03:11;0.00;0.00;0.62;0.00;0.00;0.62;;;;;36.80;1.00;;;;;;2274190;40;3607;-88
2022/07/17 07:05:41;226453.00;0.75;391.45;9607.00;0.03;17.27;;;;;37.80;1.00;;;;;;2272404;61;1914;-86
2022/07/17 07:08:08;196281.00;0.65;339.52;0.00;0.00;0.62;;;;;38.30;1.00;;;;;;2272485;61;1151;-87
2022/07/17 07:10:36;87164.00;0.29;151.41;0.00;0.00;0.62;;;;;38.20;1.00;;;;;;2272398;61;1368;-88
2022/07/17 07:13:17;165960.00;0.55;287.31;0.00;0.00;0.62;;;;;38.20;1.00;;;;;;2272464;61;1141;-86
2022/07/17 07:18:25;2009095.00;6.70;3643.02;0.00;0.00;0.62;;;;;37.50;1.00;;;;;;2275606;56;2359;-87
2022/07/17 07:20:59;113268.00;0.38;196.47;0.00;0.00;0.62;;;;;37.60;1.00;;;;;;2286388;40;3639;-87
2022/07/17 07:26:00;1195644.00;3.99;2082.35;0.00;0.00;0.62;;;;;37.20;1.00;;;;;;2269840;61;1971;-87
2022/07/17 07:28:27;143303.00;0.48;248.26;0.00;0.00;0.62;;;;;37.20;1.00;;;;;;2268266;61;1137;-86
2022/07/17 07:30:54;87230.00;0.29;151.52;0.00;0.00;0.62;;;;;36.70;1.00;;;;;;2273204;55;3713;-87
2022/07/17 07:33:21;82228.00;0.27;142.89;0.00;0.00;0.62;;;;;36.90;1.00;;;;;;2272158;61;1422;-85
2022/07/17 07:40:47;1717102.00;5.72;3058.70;0.00;0.00;0.62;;;;;36.40;1.00;;;;;;2275744;39;3504;-85
2022/07/17 07:48:27;791357.00;2.64;1366.05;114449.00;0.38;198.51;;;;;36.30;1.00;;;;;;2285958;56;2191;-86
2022/07/17 07:50:55;292762.00;0.98;505.48;0.00;0.00;0.62;;;;;36.80;1.00;;;;;;2272125;61;1640;-86
2022/07/17 07:53:25;284347.00;0.95;491.01;0.00;0.00;0.62;;;;;36.90;1.00;;;;;;2272278;61;1124;-85
2022/07/17 07:55:53;340339.00;1.13;587.26;0.00;0.00;0.62;;;;;36.40;1.00;;;;;;2272142;61;1579;-87
2022/07/17 07:58:26;313811.00;1.05;541.66;6986.00;0.02;12.73;;;;;36.60;1.00;;;;;;2285494;40;3601;-86
2022/07/17 08:00:53;327902.00;1.09;565.88;81015.00;0.27;140.79;;;;;35.90;1.00;;;;;;2272785;61;1507;-87
2022/07/17 08:03:20;154911.00;0.52;268.27;0.00;0.00;0.62;;;;;36.10;1.00;;;;;;2272827;61;1731;-87
2022/07/17 08:08:26;623142.00;2.08;1074.20;0.00;0.00;0.62;;;;;37.20;1.00;;;;;;2270705;61;1230;-86
2022/07/17 08:11:10;319647.00;1.07;551.69;0.00;0.00;0.62;;;;;37.00;1.00;;;;;;2268789;61;1396;-85
2022/07/17 08:16:28;162905.00;0.54;282.04;0.00;0.00;0.62;;;;;35.60;1.00;;;;;;2367706;40;1848;-86
2022/07/17 08:30:04;145856400.00;486.19;125771552.00;57394.00;0.19;99.97;;;;;35.50;1.00;;;;;;1626609;59;2990;-88
2022/07/17 08:32:31;225416.00;0.75;389.66;0.00;0.00;0.62;;;;;34.90;1.00;;;;;;2280228;61;1503;-86
2022/07/17 08:34:59;166982.00;0.56;289.07;0.00;0.00;0.62;;;;;34.60;1.00;;;;;;2279795;61;1073;-87
2022/07/17 08:40:25;289343.00;0.96;499.60;79893.00;0.27;138.85;;;;;34.50;1.00;;;;;;2279376;61;945;-87
2022/07/17 08:43:14;525494.00;1.75;905.73;56875.00;0.19;99.07;;;;;35.10;1.00;;;;;;2279649;61;1600;-88
2022/07/17 08:45:57;1066125.00;3.55;1849.95;141010.00;0.47;244.31;;;;;35.20;1.00;;;;;;2279629;61;1935;-86
2022/07/17 08:51:03;1154028.00;3.85;2007.32;137492.00;0.46;238.25;;;;;34.90;1.00;;;;;;1425290;59;2086;-86
2022/07/17 08:56:08;1800185.00;6.00;3221.79;129842.00;0.43;225.06;;;;;34.00;1.00;;;;;;2015859;59;2821;-88
2022/07/17 08:58:35;739909.00;2.47;1276.52;53472.00;0.18;93.19;;;;;34.40;1.00;;;;;;2288318;55;3815;-87
2022/07/17 09:01:21;1143178.00;3.81;1987.82;14125.00;0.05;25.10;;;;;33.80;1.00;;;;;;2271549;61;1289;-87
2022/07/17 09:06:29;1574141.00;5.25;2783.42;78401.00;0.26;136.28;;;;;33.70;1.00;;;;;;2277607;61;1961;-87
2022/07/17 09:09:06;1529553.00;5.10;2698.85;80292.00;0.27;139.54;;;;;33.80;1.00;;;;;;2275714;61;1638;-89
2022/07/17 09:14:14;584622.00;1.95;1007.67;15030.00;0.05;26.66;;;;;33.70;1.00;;;;;;2409767;40;1938;-87
2022/07/17 09:16:56;441557.00;1.47;761.26;59254.00;0.20;103.19;;;;;33.40;1.00;;;;;;2281607;55;3741;-85
2022/07/17 09:19:31;585005.00;1.95;1008.34;0.00;0.00;0.62;;;;;32.80;1.00;;;;;;2312748;55;3810;-85
2022/07/17 09:22:18;167116.00;0.56;289.30;0.00;0.00;0.62;;;;;32.80;1.00;;;;;;2285884;55;3821;-86
2022/07/17 09:24:50;319806.00;1.07;551.96;0.00;0.00;0.62;;;;;32.40;1.00;;;;;;2275387;61;1911;-87
2022/07/17 09:27:30;267483.00;0.89;462.02;0.00;0.00;0.62;;;;;31.30;1.00;;;;;;2275474;61;1269;-87
2022/07/17 09:32:41;880906.00;2.94;1522.61;0.00;0.00;0.62;;;;;30.00;1.00;;;;;;2327194;40;3471;-85
2022/07/17 09:38:08;753450.00;2.51;1300.06;0.00;0.00;0.62;;;;;29.60;1.00;;;;;;1970832;59;2084;-88
2022/07/17 09:45:56;1223022.00;4.08;2131.90;106918.00;0.36;185.51;;;;;29.80;1.00;;;;;;2280851;55;3543;-89
2022/07/17 09:48:26;693868.00;2.31;1196.61;105223.00;0.35;182.59;;;;;29.70;1.00;;;;;;2272548;61;1533;-88
2022/07/17 09:50:58;497301.00;1.66;857.18;108403.00;0.36;188.07;;;;;29.80;1.00;;;;;;2272649;61;1459;-85
2022/07/17 09:53:31;654780.00;2.18;1128.91;63499.00;0.21;110.53;;;;;30.00;1.00;;;;;;2272424;61;1488;-87
2022/07/17 09:56:02;464213.00;1.55;800.23;83554.00;0.28;145.18;;;;;29.90;1.00;;;;;;2272412;61;1445;-88
2022/07/17 09:58:43;681575.00;2.27;1175.30;65895.00;0.22;114.67;;;;;29.70;1.00;;;;;;2272501;61;1482;-89
2022/07/17 10:01:12;1110918.00;3.70;1929.96;65305.00;0.22;113.65;;;;;29.30;1.00;;;;;;2312832;39;3602;-85
2022/07/17 10:03:55;1378202.00;4.59;2415.96;205136.00;0.68;354.76;;;;;29.20;1.00;;;;;;2272695;61;1062;-90
2022/07/17 10:06:23;926473.00;3.09;1602.66;40001.00;0.13;69.89;;;;;29.60;1.00;;;;;;2296259;39;3712;-88
2022/07/17 10:08:52;1234074.00;4.11;2151.95;93996.00;0.31;163.21;;;;;30.50;1.00;;;;;;2311224;56;3777;-89
2022/07/17 10:16:32;1596334.00;5.32;2825.73;132123.00;0.44;228.99;;;;;29.40;1.00;;;;;;2274117;55;3696;-86
2022/07/17 10:19:33;131729376.00;439.10;92622928.00;97786.00;0.33;169.75;;;;;29.00;1.00;;;;;;2272617;61;1039;-87
2022/07/17 10:24:36;1735040.00;5.78;3093.71;214403.00;0.71;370.71;;;;;29.30;1.00;;;;;;2294967;55;3682;-86
2022/07/17 10:32:16;1460018.00;4.87;2568.11;79525.00;0.27;138.22;;;;;29.90;1.00;;;;;;2278377;55;3774;-87
2022/07/17 10:34:53;892055.00;2.97;1542.17;127068.00;0.42;220.27;;;;;29.60;1.00;;;;;;2304090;40;3762;-88
2022/07/17 10:37:29;1007708.00;3.36;1746.13;50158.00;0.17;87.46;;;;;29.40;1.00;;;;;;2311484;39;3608;-86
2022/07/17 10:40:10;126826376.00;422.75;82651528.00;238970.00;0.80;412.98;;;;;29.80;1.00;;;;;;2272177;61;1611;-86
2022/07/17 10:42:48;1021632.00;3.41;1770.82;148881.00;0.50;257.88;;;;;29.50;1.00;;;;;;2311533;40;3856;-86
2022/07/17 10:45:21;861548.00;2.87;1488.68;58490.00;0.19;101.87;;;;;29.20;1.00;;;;;;2276328;55;3797;-86
2022/07/17 10:47:54;1765876.00;5.89;3154.15;143613.00;0.48;248.80;;;;;29.30;1.00;;;;;;2284805;39;3651;-87
2022/07/17 10:50:27;1695525.00;5.65;3016.73;263534.00;0.88;455.23;;;;;29.60;1.00;;;;;;2272379;61;1672;-85
2022/07/17 10:55:30;1297947.00;4.33;2268.35;219747.00;0.73;379.91;;;;;28.80;1.00;;;;;;1565821;39;3688;-84
2022/07/17 10:57:58;2163794.00;7.21;3966.25;144849.00;0.48;250.93;;;;;29.00;1.00;;;;;;2281220;55;3715;-86